createdAt,value
2023-02-12T00:01:08.935Z,5.77
2023-02-12T00:03:35.959Z,5.56
2023-02-12T00:06:02.433Z,5.42
2023-02-12T00:08:29.000Z,5.41
2023-02-12T00:10:55.386Z,5.33
2023-02-12T00:13:21.712Z,5.59
2023-02-12T00:15:48.220Z,5.57
2023-02-12T00:18:15.517Z,5.51
2023-02-12T00:20:41.948Z,5.52
2023-02-12T00:23:08.357Z,5.45
2023-02-12T00:25:34.811Z,5.49
2023-02-12T00:28:01.180Z,5.61
2023-02-12T00:30:27.553Z,5.77
2023-02-12T00:32:55.099Z,5.70
2023-02-12T00:35:21.502Z,5.72
2023-02-12T00:37:49.716Z,5.76
2023-02-12T00:40:16.223Z,5.58
2023-02-12T00:42:42.574Z,5.67
2023-02-12T00:45:09.281Z,5.57
2023-02-12T00:47:35.583Z,5.46
2023-02-12T00:50:02.038Z,5.57
2023-02-12T00:52:28.341Z,5.61
2023-02-12T00:54:54.682Z,5.59
2023-02-12T00:57:21.153Z,5.52
2023-02-12T00:59:49.164Z,5.58
2023-02-12T01:02:18.011Z,5.60
2023-02-12T01:04:44.916Z,5.39
2023-02-12T01:07:11.261Z,5.52
2023-02-12T01:09:37.641Z,5.50
2023-02-12T01:12:04.280Z,5.48
2023-02-12T01:14:30.610Z,5.53
2023-02-12T01:16:58.188Z,5.44
2023-02-12T01:19:24.626Z,5.54
2023-02-12T01:21:51.013Z,5.45
2023-02-12T01:24:17.338Z,5.59
2023-02-12T01:26:43.823Z,5.51
2023-02-12T01:29:10.561Z,5.49
2023-02-12T01:31:39.317Z,5.65
2023-02-12T01:34:06.695Z,5.52
2023-02-12T01:36:33.690Z,5.59
2023-02-12T01:39:02.560Z,5.49
2023-02-12T01:41:32.539Z,5.30
2023-02-12T01:44:11.560Z,5.52
2023-02-12T01:46:38.977Z,5.35
2023-02-12T01:49:09.585Z,5.47
2023-02-12T01:51:36.368Z,5.36
2023-02-12T01:54:07.287Z,5.40
2023-02-12T01:56:34.487Z,5.35
2023-02-12T01:59:01.018Z,5.35
2023-02-12T02:01:30.792Z,5.47
2023-02-12T02:04:03.326Z,5.55
2023-02-12T02:06:36.073Z,5.42
2023-02-12T02:09:04.411Z,5.33
2023-02-12T02:11:50.647Z,5.46
2023-02-12T02:14:32.613Z,5.39
2023-02-12T02:17:43.656Z,5.46
2023-02-12T02:20:42.779Z,5.58
2023-02-12T02:23:16.442Z,5.66
2023-02-12T02:26:10.429Z,5.62
2023-02-12T02:28:58.303Z,5.69
2023-02-12T02:31:33.913Z,5.62
2023-02-12T02:34:12.350Z,5.64
2023-02-12T02:37:16.415Z,5.58
2023-02-12T02:40:02.496Z,5.49
2023-02-12T02:42:46.589Z,5.41
2023-02-12T02:45:20.764Z,5.34
2023-02-12T02:48:04.309Z,5.34
2023-02-12T02:50:34.601Z,5.35
2023-02-12T02:53:12.366Z,5.35
2023-02-12T02:55:45.148Z,5.27
2023-02-12T02:58:20.567Z,5.20
2023-02-12T03:01:04.557Z,5.50
2023-02-12T03:03:34.409Z,5.51
2023-02-12T03:06:26.910Z,5.44
2023-02-12T03:09:00.160Z,5.56
2023-02-12T03:11:34.285Z,5.40
2023-02-12T03:14:10.113Z,5.59
2023-02-12T03:16:46.030Z,5.47
2023-02-12T03:19:18.901Z,5.49
2023-02-12T03:22:02.256Z,5.30
2023-02-12T03:24:47.014Z,5.36
2023-02-12T03:27:19.079Z,5.46
2023-02-12T03:29:46.081Z,5.26
2023-02-12T03:32:33.722Z,5.20
2023-02-12T03:35:21.393Z,5.30
2023-02-12T03:38:07.983Z,5.31
2023-02-12T03:40:40.200Z,5.53
2023-02-12T03:43:15.782Z,5.56
2023-02-12T03:46:08.090Z,5.57
2023-02-12T03:48:46.113Z,5.60
2023-02-12T03:51:25.226Z,5.53
2023-02-12T03:53:51.927Z,5.55
2023-02-12T03:56:25.234Z,5.40
2023-02-12T03:58:51.676Z,5.30
2023-02-12T04:01:18.609Z,5.38
2023-02-12T04:03:45.164Z,5.51
2023-02-12T04:06:26.871Z,5.37
2023-02-12T04:08:55.435Z,5.21
2023-02-12T04:12:01.860Z,5.43
2023-02-12T04:14:44.346Z,5.49
2023-02-12T04:17:29.971Z,5.44
2023-02-12T04:20:15.128Z,5.38
2023-02-12T04:22:59.033Z,5.46
2023-02-12T04:25:40.283Z,5.59
2023-02-12T04:28:22.466Z,5.47
2023-02-12T04:31:20.403Z,5.46
2023-02-12T04:33:54.861Z,5.57
2023-02-12T04:36:24.574Z,5.63
2023-02-12T04:38:55.796Z,5.36
2023-02-12T04:41:22.167Z,5.44
2023-02-12T04:43:48.453Z,5.43
2023-02-12T04:46:14.786Z,5.50
2023-02-12T04:48:53.465Z,5.59
2023-02-12T04:51:20.159Z,5.59
2023-02-12T04:53:46.842Z,5.55
2023-02-12T04:56:13.482Z,5.52
2023-02-12T04:58:41.169Z,5.59
2023-02-12T05:01:08.957Z,5.56
2023-02-12T05:03:35.957Z,5.50
2023-02-12T05:06:06.969Z,5.48
2023-02-12T05:08:33.565Z,5.53
2023-02-12T05:11:08.244Z,5.51
2023-02-12T05:13:35.288Z,5.57
2023-02-12T05:16:06.492Z,5.65
2023-02-12T05:18:33.094Z,5.41
2023-02-12T05:21:02.069Z,5.25
2023-02-12T05:23:30.581Z,5.18
2023-02-12T05:26:02.290Z,5.19
2023-02-12T05:28:28.768Z,5.35
2023-02-12T05:30:55.495Z,5.28
2023-02-12T05:33:21.827Z,5.26
2023-02-12T05:35:48.373Z,5.37
2023-02-12T05:38:14.681Z,5.46
2023-02-12T05:40:42.946Z,5.51
2023-02-12T05:43:10.485Z,5.42
2023-02-12T05:45:37.956Z,5.43
2023-02-12T05:48:04.398Z,5.39
2023-02-12T05:50:30.728Z,5.44
2023-02-12T05:53:00.978Z,5.34
2023-02-12T05:55:27.755Z,5.52
2023-02-12T05:57:54.506Z,5.58
2023-02-12T06:00:21.278Z,5.53
2023-02-12T06:02:47.778Z,5.23
2023-02-12T06:05:14.231Z,5.39
2023-02-12T06:07:40.524Z,5.38
2023-02-12T06:10:07.605Z,5.51
2023-02-12T06:12:33.903Z,5.56
2023-02-12T06:15:00.313Z,5.54
2023-02-12T06:17:26.779Z,5.31
2023-02-12T06:19:53.091Z,5.27
2023-02-12T06:22:19.426Z,5.24
2023-02-12T06:24:45.715Z,5.24
2023-02-12T06:27:12.081Z,5.25
2023-02-12T06:29:38.421Z,5.34
2023-02-12T06:32:05.018Z,5.32
2023-02-12T06:34:31.409Z,5.23
2023-02-12T06:36:57.776Z,5.28
2023-02-12T06:39:24.279Z,5.40
2023-02-12T06:41:50.662Z,5.47
2023-02-12T06:44:17.116Z,5.47
2023-02-12T06:46:43.465Z,5.47
2023-02-12T06:49:12.544Z,5.33
2023-02-12T06:51:41.090Z,5.37
2023-02-12T06:54:13.081Z,5.20
2023-02-12T06:56:39.459Z,5.27
2023-02-12T06:59:05.739Z,5.34
2023-02-12T07:01:32.043Z,5.44
2023-02-12T07:04:01.935Z,5.42
2023-02-12T07:06:29.785Z,5.46
2023-02-12T07:08:57.068Z,5.42
2023-02-12T07:11:25.137Z,5.40
2023-02-12T07:13:51.430Z,5.40
2023-02-12T07:16:18.064Z,5.44
2023-02-12T07:18:45.442Z,5.35
2023-02-12T07:21:13.529Z,5.35
2023-02-12T07:23:40.271Z,5.42
2023-02-12T07:26:17.012Z,5.53
2023-02-12T07:28:44.271Z,5.56
2023-02-12T07:31:16.608Z,5.14
2023-02-12T07:33:43.928Z,5.29
2023-02-12T07:36:15.532Z,5.34
2023-02-12T07:38:42.387Z,5.37
2023-02-12T07:41:14.437Z,5.47
2023-02-12T07:43:43.368Z,5.54
2023-02-12T07:46:18.549Z,5.34
2023-02-12T07:48:46.498Z,5.37
2023-02-12T07:51:15.044Z,5.39
2023-02-12T07:53:42.073Z,5.47
2023-02-12T07:56:16.853Z,5.41
2023-02-12T07:58:45.043Z,5.38
2023-02-12T08:01:23.436Z,5.35
2023-02-12T08:03:51.315Z,5.39
2023-02-12T08:06:24.134Z,5.33
2023-02-12T08:08:52.200Z,5.29
2023-02-12T08:11:18.759Z,5.34
2023-02-12T08:13:45.989Z,5.32
2023-02-12T08:16:15.507Z,5.35
2023-02-12T08:18:42.532Z,5.37
2023-02-12T08:21:13.196Z,5.44
2023-02-12T08:23:40.077Z,5.37
2023-02-12T08:26:14.138Z,5.44
2023-02-12T08:28:51.221Z,5.49
2023-02-12T08:31:23.086Z,5.50
2023-02-12T08:33:51.611Z,5.53
2023-02-12T08:36:20.551Z,5.62
2023-02-12T08:38:47.861Z,5.64
2023-02-12T08:41:26.677Z,5.74
2023-02-12T08:43:55.398Z,5.66
2023-02-12T08:46:24.862Z,5.70
2023-02-12T08:49:03.517Z,5.75
2023-02-12T08:51:32.892Z,5.78
2023-02-12T08:54:01.692Z,5.84
2023-02-12T08:56:32.464Z,5.74
2023-02-12T08:58:59.992Z,5.72
2023-02-12T09:01:29.442Z,5.75
2023-02-12T09:03:56.355Z,5.97
2023-02-12T09:06:24.240Z,6.01
2023-02-12T09:08:51.454Z,6.05
2023-02-12T09:11:32.011Z,6.04
2023-02-12T09:14:00.477Z,6.09
2023-02-12T09:16:28.719Z,6.04
2023-02-12T09:18:55.552Z,6.11
2023-02-12T09:21:22.129Z,6.13
2023-02-12T09:23:49.071Z,6.24
2023-02-12T09:26:25.921Z,6.29
2023-02-12T09:28:53.309Z,6.23
2023-02-12T09:31:26.218Z,6.29
2023-02-12T09:34:03.959Z,6.35
2023-02-12T09:36:31.316Z,6.36
2023-02-12T09:38:59.222Z,6.36
2023-02-12T09:42:07.146Z,6.49
2023-02-12T09:44:41.353Z,6.58
2023-02-12T09:47:43.911Z,6.65
2023-02-12T09:50:46.584Z,6.63
2023-02-12T09:53:17.251Z,6.69
2023-02-12T09:55:43.962Z,6.68
2023-02-12T09:58:16.354Z,6.78
2023-02-12T10:00:44.433Z,6.80
2023-02-12T10:03:16.949Z,6.83
2023-02-12T10:05:51.117Z,6.79
2023-02-12T10:08:47.359Z,6.81
2023-02-12T10:11:37.804Z,6.83
2023-02-12T10:14:21.116Z,6.81
2023-02-12T10:17:31.041Z,6.73
2023-02-12T10:20:31.809Z,6.78
2023-02-12T10:23:29.367Z,6.80
2023-02-12T10:25:59.713Z,6.85
2023-02-12T10:28:39.635Z,6.86
2023-02-12T10:31:15.167Z,6.94
2023-02-12T10:33:45.617Z,6.94
2023-02-12T10:36:37.005Z,6.98
2023-02-12T10:39:21.797Z,6.97
2023-02-12T10:42:16.487Z,6.99
2023-02-12T10:44:42.869Z,7.06
2023-02-12T10:47:18.464Z,7.03
2023-02-12T10:49:45.112Z,7.03
2023-02-12T10:52:19.185Z,7.14
2023-02-12T10:54:49.364Z,7.13
2023-02-12T10:57:18.540Z,7.12
2023-02-12T10:59:47.069Z,7.08
2023-02-12T11:02:27.000Z,7.07
2023-02-12T11:04:54.818Z,6.96
2023-02-12T11:07:22.309Z,7.01
2023-02-12T11:09:50.524Z,7.04
2023-02-12T11:12:36.744Z,7.09
2023-02-12T11:15:07.612Z,7.08
2023-02-12T11:17:40.256Z,7.12
2023-02-12T11:20:15.812Z,7.16
2023-02-12T11:23:01.790Z,7.17
2023-02-12T11:25:33.805Z,7.20
2023-02-12T11:28:17.790Z,7.24
2023-02-12T11:30:55.548Z,7.25
2023-02-12T11:33:34.492Z,7.25
2023-02-12T11:36:15.040Z,7.25
2023-02-12T11:38:51.584Z,7.30
2023-02-12T11:41:26.928Z,7.33
2023-02-12T11:43:53.777Z,7.25
2023-02-12T11:46:26.644Z,7.31
2023-02-12T11:48:55.771Z,7.36
2023-02-12T11:51:29.224Z,7.32
2023-02-12T11:53:59.481Z,7.30
2023-02-12T11:56:41.533Z,7.32
2023-02-12T11:59:36.973Z,7.39
2023-02-12T12:02:21.999Z,7.46
2023-02-12T12:04:51.908Z,7.48
2023-02-12T12:07:28.231Z,7.49
2023-02-12T12:10:01.298Z,7.56
2023-02-12T12:12:43.924Z,7.57
2023-02-12T12:15:37.298Z,7.54
2023-02-12T12:18:57.530Z,7.64
2023-02-12T12:21:42.378Z,7.61
2023-02-12T12:24:14.747Z,7.60
2023-02-12T12:26:47.549Z,7.52
2023-02-12T12:29:22.068Z,7.57
2023-02-12T12:31:59.986Z,7.60
2023-02-12T12:34:28.164Z,7.58
2023-02-12T12:37:32.054Z,7.64
2023-02-12T12:40:17.181Z,7.65
2023-02-12T12:43:01.876Z,7.70
2023-02-12T12:46:00.576Z,7.69
2023-02-12T12:48:59.040Z,7.64
2023-02-12T12:51:40.935Z,7.68
2023-02-12T12:54:25.617Z,7.75
2023-02-12T12:57:05.135Z,7.77
2023-02-12T13:00:02.305Z,7.78
2023-02-12T13:02:38.217Z,7.81
2023-02-12T13:05:19.869Z,7.84
2023-02-12T13:08:04.562Z,7.83
2023-02-12T13:10:49.281Z,7.81
2023-02-12T13:13:20.691Z,7.89
2023-02-12T13:16:19.214Z,7.89
2023-02-12T13:19:09.003Z,7.86
2023-02-12T13:21:44.376Z,7.90
2023-02-12T13:24:38.613Z,7.94
2023-02-12T13:27:12.777Z,7.91
2023-02-12T13:29:44.845Z,7.95
2023-02-12T13:32:19.956Z,8.02
2023-02-12T13:34:47.014Z,7.97
2023-02-12T13:37:19.784Z,7.97
2023-02-12T13:39:49.092Z,8.00
2023-02-12T13:42:46.579Z,8.04
2023-02-12T13:45:48.232Z,8.02
2023-02-12T13:48:35.739Z,8.00
2023-02-12T13:51:15.267Z,8.07
2023-02-12T13:53:57.604Z,8.01
2023-02-12T13:56:42.846Z,8.05
2023-02-12T13:59:34.160Z,8.08
2023-02-12T14:02:24.994Z,8.09
2023-02-12T14:04:56.823Z,8.11
2023-02-12T14:07:24.398Z,8.17
2023-02-12T14:09:50.675Z,8.12
2023-02-12T14:12:40.916Z,8.12
2023-02-12T14:15:32.656Z,8.14
2023-02-12T14:18:01.853Z,8.09
2023-02-12T14:20:32.307Z,8.16
2023-02-12T14:23:04.472Z,8.15
2023-02-12T14:25:39.900Z,8.18
2023-02-12T14:28:28.812Z,8.16
2023-02-12T14:31:23.231Z,8.12
2023-02-12T14:34:11.842Z,8.14
2023-02-12T14:36:46.399Z,8.19
2023-02-12T14:39:18.799Z,8.17
2023-02-12T14:42:07.423Z,8.21
2023-02-12T14:44:38.544Z,8.17
2023-02-12T14:47:36.276Z,8.16
2023-02-12T14:50:12.547Z,8.12
2023-02-12T14:52:42.336Z,8.15
2023-02-12T14:55:24.481Z,8.15
2023-02-12T14:57:55.504Z,8.15
2023-02-12T15:00:34.364Z,8.14
2023-02-12T15:03:12.679Z,8.18
2023-02-12T15:05:56.016Z,8.17
2023-02-12T15:08:22.390Z,8.18
2023-02-12T15:10:52.484Z,8.15
2023-02-12T15:13:30.079Z,8.17
2023-02-12T15:16:15.027Z,8.18
2023-02-12T15:18:41.336Z,8.20
2023-02-12T15:21:20.786Z,8.25
2023-02-12T15:23:57.052Z,8.17
2023-02-12T15:26:27.287Z,8.18
2023-02-12T15:28:55.356Z,8.14
2023-02-12T15:31:27.139Z,8.07
2023-02-12T15:33:56.348Z,8.17
2023-02-12T15:36:25.255Z,8.16
2023-02-12T15:38:54.908Z,8.18
2023-02-12T15:41:48.015Z,8.16
2023-02-12T15:44:32.079Z,8.16
2023-02-12T15:47:14.421Z,8.08
2023-02-12T15:49:42.325Z,8.12
2023-02-12T15:52:17.416Z,8.12
2023-02-12T15:54:45.807Z,8.09
2023-02-12T15:57:19.248Z,8.07
2023-02-12T15:59:53.656Z,8.09
2023-02-12T16:02:25.326Z,8.09
2023-02-12T16:04:51.893Z,8.05
2023-02-12T16:07:19.454Z,7.97
2023-02-12T16:09:46.771Z,8.07
2023-02-12T16:12:15.494Z,8.06
2023-02-12T16:14:50.727Z,8.04
2023-02-12T16:17:27.408Z,8.02
2023-02-12T16:20:19.756Z,7.95
2023-02-12T16:22:49.092Z,8.00
2023-02-12T16:25:16.969Z,8.02
2023-02-12T16:27:57.916Z,8.01
2023-02-12T16:30:27.434Z,7.98
2023-02-12T16:32:54.334Z,7.96
2023-02-12T16:35:33.517Z,7.93
2023-02-12T16:38:03.274Z,7.94
2023-02-12T16:40:33.748Z,7.92
2023-02-12T16:43:22.021Z,7.97
2023-02-12T16:45:49.538Z,7.89
2023-02-12T16:48:20.163Z,7.89
2023-02-12T16:50:52.910Z,7.87
2023-02-12T16:53:26.974Z,7.86
2023-02-12T16:55:53.528Z,7.66
2023-02-12T16:58:19.862Z,7.85
2023-02-12T17:00:46.445Z,7.88
2023-02-12T17:03:14.239Z,7.87
2023-02-12T17:05:43.006Z,7.84
2023-02-12T17:08:22.071Z,7.83
2023-02-12T17:10:48.938Z,7.72
2023-02-12T17:13:16.316Z,7.83
2023-02-12T17:15:49.627Z,7.82
2023-02-12T17:18:18.126Z,7.79
2023-02-12T17:20:51.086Z,7.72
2023-02-12T17:23:17.498Z,7.75
2023-02-12T17:25:43.847Z,7.80
2023-02-12T17:28:10.238Z,7.69
2023-02-12T17:30:37.319Z,7.66
2023-02-12T17:33:04.290Z,7.57
2023-02-12T17:35:30.637Z,7.59
2023-02-12T17:37:56.958Z,7.51
2023-02-12T17:40:23.262Z,7.53
2023-02-12T17:42:50.165Z,7.54
2023-02-12T17:45:17.159Z,7.50
2023-02-12T17:47:43.448Z,7.45
2023-02-12T17:50:14.524Z,7.45
2023-02-12T17:52:41.467Z,7.47
2023-02-12T17:55:10.500Z,7.57
2023-02-12T17:57:37.347Z,7.43
2023-02-12T18:00:05.972Z,7.43
2023-02-12T18:02:37.105Z,7.45
2023-02-12T18:05:04.347Z,7.40
2023-02-12T18:07:35.029Z,7.40
2023-02-12T18:10:01.852Z,7.42
2023-02-12T18:12:30.546Z,7.45
2023-02-12T18:14:58.751Z,7.36
2023-02-12T18:17:25.757Z,7.44
2023-02-12T18:19:53.317Z,7.47
2023-02-12T18:22:20.043Z,7.43
2023-02-12T18:24:46.490Z,7.49
2023-02-12T18:27:14.034Z,7.44
2023-02-12T18:29:40.956Z,7.28
2023-02-12T18:32:07.894Z,7.35
2023-02-12T18:34:34.521Z,7.41
2023-02-12T18:37:00.871Z,7.32
2023-02-12T18:39:27.174Z,7.33
2023-02-12T18:41:53.490Z,7.33
2023-02-12T18:44:19.881Z,7.38
2023-02-12T18:46:46.382Z,7.39
2023-02-12T18:49:13.986Z,7.41
2023-02-12T18:51:40.935Z,7.26
2023-02-12T18:54:10.703Z,7.39
2023-02-12T18:56:40.785Z,7.39
2023-02-12T18:59:08.069Z,7.42
2023-02-12T19:01:35.843Z,7.35
2023-02-12T19:04:05.142Z,7.35
2023-02-12T19:06:33.442Z,7.34
2023-02-12T19:09:03.090Z,7.33
2023-02-12T19:11:30.474Z,7.33
2023-02-12T19:13:57.246Z,7.33
2023-02-12T19:16:24.938Z,7.32
2023-02-12T19:18:54.702Z,7.26
2023-02-12T19:21:22.508Z,7.33
2023-02-12T19:23:52.290Z,7.40
2023-02-12T19:26:18.676Z,7.40
2023-02-12T19:28:45.121Z,7.30
2023-02-12T19:31:15.958Z,7.39
2023-02-12T19:33:43.415Z,7.39
2023-02-12T19:36:12.468Z,7.36
2023-02-12T19:38:39.410Z,7.44
2023-02-12T19:41:18.853Z,7.41
2023-02-12T19:43:45.688Z,7.37
2023-02-12T19:46:17.259Z,7.46
2023-02-12T19:48:45.104Z,7.35
2023-02-12T19:51:17.331Z,7.33
2023-02-12T19:53:44.298Z,7.15
2023-02-12T19:56:10.855Z,7.34
2023-02-12T19:58:37.836Z,7.36
2023-02-12T20:01:22.051Z,7.26
2023-02-12T20:03:49.458Z,7.21
2023-02-12T20:06:22.758Z,7.26
2023-02-12T20:08:49.506Z,7.08
2023-02-12T20:11:19.420Z,7.19
2023-02-12T20:13:46.004Z,7.09
2023-02-12T20:16:18.204Z,7.12
2023-02-12T20:18:46.195Z,7.25
2023-02-12T20:21:16.153Z,7.20
2023-02-12T20:23:43.157Z,7.32
2023-02-12T20:26:11.411Z,7.32
2023-02-12T20:28:38.614Z,7.39
2023-02-12T20:31:17.320Z,7.28
2023-02-12T20:33:44.694Z,7.38
2023-02-12T20:36:12.610Z,7.44
2023-02-12T20:38:40.819Z,7.39
2023-02-12T20:41:09.212Z,7.26
2023-02-12T20:43:36.237Z,7.31
2023-02-12T20:46:14.606Z,7.31
2023-02-12T20:48:41.998Z,7.20
2023-02-12T20:51:11.148Z,7.24
2023-02-12T20:53:37.572Z,7.21
2023-02-12T20:56:06.428Z,7.23
2023-02-12T20:58:32.889Z,7.27
2023-02-12T21:01:07.052Z,7.36
2023-02-12T21:03:33.859Z,7.23
2023-02-12T21:06:00.727Z,7.10
2023-02-12T21:08:27.247Z,7.10
2023-02-12T21:11:24.490Z,7.32
2023-02-12T21:13:59.271Z,7.26
2023-02-12T21:16:34.643Z,7.27
2023-02-12T21:19:01.350Z,7.28
2023-02-12T21:21:30.867Z,7.14
2023-02-12T21:23:58.893Z,7.11
2023-02-12T21:26:27.672Z,7.16
2023-02-12T21:28:56.146Z,7.24
2023-02-12T21:31:25.633Z,7.15
2023-02-12T21:33:54.069Z,7.20
2023-02-12T21:36:24.146Z,7.25
2023-02-12T21:38:51.724Z,7.20
2023-02-12T21:41:22.065Z,7.15
2023-02-12T21:43:54.219Z,7.01
2023-02-12T21:46:22.279Z,7.11
2023-02-12T21:48:49.653Z,7.10
2023-02-12T21:51:37.844Z,7.21
2023-02-12T21:54:08.353Z,7.11
2023-02-12T21:56:39.984Z,7.14
2023-02-12T21:59:08.540Z,7.08
2023-02-12T22:01:36.616Z,7.20
2023-02-12T22:04:05.063Z,7.23
2023-02-12T22:06:31.385Z,7.15
2023-02-12T22:09:03.429Z,7.19
2023-02-12T22:11:29.740Z,7.02
2023-02-12T22:13:56.043Z,6.98
2023-02-12T22:16:25.379Z,6.93
2023-02-12T22:18:59.064Z,6.97
2023-02-12T22:21:27.697Z,7.07
2023-02-12T22:23:54.811Z,7.04
2023-02-12T22:26:26.487Z,7.18
2023-02-12T22:28:55.704Z,7.15
2023-02-12T22:31:25.852Z,7.11
2023-02-12T22:33:55.753Z,7.11
2023-02-12T22:36:24.905Z,7.05
2023-02-12T22:38:53.147Z,7.05
2023-02-12T22:41:20.584Z,6.92
2023-02-12T22:43:47.638Z,6.94
2023-02-12T22:46:15.013Z,6.90
2023-02-12T22:48:42.014Z,6.95
2023-02-12T22:51:20.853Z,6.95
2023-02-12T22:53:47.658Z,7.03
2023-02-12T22:56:14.694Z,7.10
2023-02-12T22:58:41.337Z,7.08
2023-02-12T23:01:10.261Z,7.05
2023-02-12T23:03:39.569Z,7.12
2023-02-12T23:06:10.030Z,7.15
2023-02-12T23:08:36.805Z,7.01
2023-02-12T23:11:03.228Z,7.03
2023-02-12T23:13:30.439Z,6.86
2023-02-12T23:15:57.904Z,6.95
2023-02-12T23:18:24.974Z,6.85
2023-02-12T23:20:52.265Z,6.89
2023-02-12T23:23:20.113Z,6.82
2023-02-12T23:25:46.734Z,6.83
2023-02-12T23:28:13.636Z,6.83
2023-02-12T23:30:40.060Z,6.81
2023-02-12T23:33:06.487Z,6.89
2023-02-12T23:35:33.030Z,6.83
2023-02-12T23:37:59.491Z,6.92
2023-02-12T23:40:25.807Z,6.88
2023-02-12T23:42:52.223Z,6.72
2023-02-12T23:45:18.559Z,6.75
2023-02-12T23:47:44.857Z,6.73
2023-02-12T23:50:11.212Z,6.96
2023-02-12T23:52:37.613Z,6.92
2023-02-12T23:55:04.246Z,6.77
2023-02-12T23:57:30.653Z,6.86
2023-02-12T23:59:56.997Z,6.85
